createdAt,value
2022-08-16T00:01:08.810Z,5.30
2022-08-16T00:03:13.673Z,5.20
2022-08-16T00:05:16.401Z,5.13
2022-08-16T00:07:19.185Z,5.05
2022-08-16T00:09:21.928Z,5.00
2022-08-16T00:11:24.398Z,5.40
2022-08-16T00:13:25.699Z,4.85
2022-08-16T00:15:51.511Z,6.38
2022-08-16T00:17:56.850Z,5.50
2022-08-16T00:19:58.690Z,5.95
2022-08-16T00:22:03.168Z,5.78
2022-08-16T00:24:12.725Z,5.65
2022-08-16T00:26:36.329Z,5.63
2022-08-16T00:28:35.384Z,5.90
2022-08-16T00:30:38.407Z,6.15
2022-08-16T00:32:42.127Z,6.18
2022-08-16T00:34:53.090Z,6.00
2022-08-16T00:36:56.009Z,5.68
2022-08-16T00:38:57.372Z,5.18
2022-08-16T00:40:59.848Z,5.60
2022-08-16T00:43:01.482Z,5.53
2022-08-16T00:45:29.297Z,5.13
2022-08-16T00:47:38.902Z,5.20
2022-08-16T00:49:44.772Z,5.30
2022-08-16T00:51:53.729Z,5.25
2022-08-16T00:56:00.500Z,5.72
2022-08-16T00:58:13.018Z,5.55
2022-08-16T01:00:20.236Z,4.90
2022-08-16T01:02:31.516Z,5.35
2022-08-16T01:04:34.353Z,4.88
2022-08-16T01:06:49.388Z,5.00
2022-08-16T01:09:01.381Z,5.97
2022-08-16T01:11:02.947Z,5.10
2022-08-16T01:13:12.060Z,4.50
2022-08-16T01:15:14.563Z,5.30
2022-08-16T01:17:17.594Z,5.55
2022-08-16T01:19:44.766Z,5.80
2022-08-16T01:22:47.631Z,6.38
2022-08-16T01:24:54.014Z,6.40
2022-08-16T01:27:06.185Z,5.80
2022-08-16T01:31:12.973Z,6.00
2022-08-16T01:33:15.590Z,5.97
2022-08-16T01:35:26.786Z,5.20
2022-08-16T01:37:29.004Z,5.35
2022-08-16T01:39:37.714Z,5.25
2022-08-16T01:41:42.216Z,4.63
2022-08-16T01:43:53.755Z,5.05
2022-08-16T01:45:57.837Z,4.60
2022-08-16T01:47:59.644Z,5.22
2022-08-16T01:50:42.430Z,4.90
2022-08-16T01:52:29.678Z,5.47
2022-08-16T01:54:32.331Z,5.60
2022-08-16T01:56:39.505Z,5.63
2022-08-16T01:58:40.847Z,5.45
2022-08-16T02:00:49.504Z,5.07
2022-08-16T02:02:52.480Z,5.20
2022-08-16T02:04:55.751Z,5.40
2022-08-16T02:06:59.310Z,5.30
2022-08-16T02:09:01.282Z,5.72
2022-08-16T02:11:04.923Z,4.85
2022-08-16T02:13:07.429Z,4.95
2022-08-16T02:15:09.152Z,5.35
2022-08-16T02:17:11.821Z,5.35
2022-08-16T02:19:16.153Z,4.95
2022-08-16T02:21:31.533Z,5.93
2022-08-16T02:23:34.106Z,5.60
2022-08-16T02:25:52.100Z,4.95
2022-08-16T02:27:55.357Z,5.60
2022-08-16T02:30:05.005Z,5.68
2022-08-16T02:32:51.234Z,5.93
2022-08-16T02:34:34.770Z,6.22
2022-08-16T02:36:49.645Z,5.75
2022-08-16T02:38:51.797Z,5.43
2022-08-16T02:40:54.570Z,5.18
2022-08-16T02:42:56.603Z,5.68
2022-08-16T02:44:57.961Z,5.53
2022-08-16T02:46:59.858Z,5.25
2022-08-16T02:49:05.823Z,4.55
2022-08-16T02:51:11.468Z,4.80
2022-08-16T02:53:13.059Z,5.40
2022-08-16T02:55:19.759Z,5.05
2022-08-16T02:57:42.380Z,4.60
2022-08-16T02:59:55.042Z,4.97
2022-08-16T03:01:56.436Z,5.78
2022-08-16T03:04:28.941Z,5.43
2022-08-16T03:06:41.884Z,5.20
2022-08-16T03:08:52.004Z,5.40
2022-08-16T03:10:54.539Z,5.55
2022-08-16T03:13:00.817Z,5.00
2022-08-16T03:15:03.453Z,5.03
2022-08-16T03:17:04.798Z,5.05
2022-08-16T03:19:07.413Z,5.43
2022-08-16T03:21:10.113Z,5.22
2022-08-16T03:23:11.579Z,5.22
2022-08-16T03:25:16.419Z,5.35
2022-08-16T03:27:17.719Z,5.40
2022-08-16T03:29:21.434Z,5.47
2022-08-16T03:31:25.231Z,5.32
2022-08-16T03:33:35.988Z,5.30
2022-08-16T03:35:40.038Z,5.28
2022-08-16T03:38:01.868Z,5.57
2022-08-16T03:40:05.396Z,5.30
2022-08-16T03:42:07.934Z,5.22
2022-08-16T03:44:11.107Z,5.20
2022-08-16T03:46:47.281Z,5.05
2022-08-16T03:48:51.484Z,4.97
2022-08-16T03:51:00.209Z,5.05
2022-08-16T03:53:05.762Z,5.15
2022-08-16T03:55:08.367Z,5.63
2022-08-16T03:57:16.520Z,5.65
2022-08-16T03:59:17.911Z,4.95
2022-08-16T04:01:20.231Z,5.60
2022-08-16T04:03:21.659Z,5.78
2022-08-16T04:05:23.259Z,5.35
2022-08-16T04:07:24.875Z,4.70
2022-08-16T04:09:26.208Z,5.10
2022-08-16T04:11:27.704Z,4.90
2022-08-16T04:16:01.604Z,5.70
2022-08-16T04:18:07.977Z,5.00
2022-08-16T04:20:11.103Z,5.03
2022-08-16T04:22:30.731Z,5.07
2022-08-16T04:24:33.891Z,5.82
2022-08-16T04:26:35.327Z,5.55
2022-08-16T04:28:53.411Z,5.13
2022-08-16T04:30:58.547Z,5.60
2022-08-16T04:33:00.369Z,5.57
2022-08-16T04:35:07.669Z,5.13
2022-08-16T04:37:10.747Z,6.07
2022-08-16T04:39:12.068Z,5.35
2022-08-16T04:41:17.600Z,5.43
2022-08-16T04:43:19.007Z,5.05
2022-08-16T04:45:36.432Z,5.68
2022-08-16T04:47:38.365Z,6.13
2022-08-16T04:49:46.016Z,6.45
2022-08-16T04:51:53.685Z,4.90
2022-08-16T04:53:56.888Z,4.93
2022-08-16T04:55:58.210Z,5.20
2022-08-16T04:57:59.604Z,5.35
2022-08-16T05:00:30.284Z,5.28
2022-08-16T05:02:41.969Z,4.90
2022-08-16T05:04:43.999Z,5.13
2022-08-16T05:06:46.184Z,4.93
2022-08-16T05:08:47.788Z,4.88
2022-08-16T05:10:50.017Z,5.22
2022-08-16T05:12:51.438Z,5.38
2022-08-16T05:15:01.974Z,5.45
2022-08-16T05:17:04.415Z,5.60
2022-08-16T05:19:06.313Z,5.20
2022-08-16T05:21:14.506Z,5.20
2022-08-16T05:23:17.415Z,5.22
2022-08-16T05:25:18.830Z,4.95
2022-08-16T05:27:20.123Z,5.38
2022-08-16T05:29:21.451Z,7.88
2022-08-16T05:31:29.773Z,6.03
2022-08-16T05:33:31.590Z,5.50
2022-08-16T05:35:33.174Z,6.50
2022-08-16T05:37:39.868Z,5.97
2022-08-16T05:39:41.490Z,5.60
2022-08-16T05:41:45.510Z,4.70
2022-08-16T05:43:47.739Z,5.88
2022-08-16T05:45:50.923Z,5.97
2022-08-16T05:48:00.047Z,5.15
2022-08-16T05:52:04.388Z,5.80
2022-08-16T05:54:14.346Z,5.78
2022-08-16T05:56:19.546Z,4.93
2022-08-16T05:58:33.133Z,4.43
2022-08-16T06:00:34.872Z,4.60
2022-08-16T06:02:36.594Z,4.82
2022-08-16T06:04:37.970Z,4.88
2022-08-16T06:06:56.260Z,5.68
2022-08-16T06:08:58.375Z,6.60
2022-08-16T06:11:09.779Z,5.75
2022-08-16T06:13:11.853Z,5.38
2022-08-16T06:15:20.280Z,5.43
2022-08-16T06:17:23.166Z,4.72
2022-08-16T06:19:24.562Z,5.65
2022-08-16T06:21:25.999Z,4.80
2022-08-16T06:23:27.285Z,5.82
2022-08-16T06:25:36.008Z,5.18
2022-08-16T06:27:41.053Z,4.93
2022-08-16T06:29:44.542Z,5.10
2022-08-16T06:31:51.778Z,5.78
2022-08-16T06:33:53.131Z,4.20
2022-08-16T06:35:59.502Z,4.63
2022-08-16T06:38:01.198Z,4.60
2022-08-16T06:40:04.817Z,5.18
2022-08-16T06:42:06.598Z,4.95
2022-08-16T06:44:08.491Z,4.30
2022-08-16T06:46:31.878Z,4.70
2022-08-16T06:48:34.115Z,5.03
2022-08-16T06:50:35.690Z,4.78
2022-08-16T06:53:00.759Z,5.35
2022-08-16T06:54:58.719Z,5.75
2022-08-16T06:57:00.123Z,5.20
2022-08-16T06:59:01.500Z,5.57
2022-08-16T07:01:03.713Z,5.55
2022-08-16T07:03:27.642Z,6.13
2022-08-16T07:05:42.047Z,4.72
2022-08-16T07:07:45.279Z,4.95
2022-08-16T07:09:52.125Z,4.70
2022-08-16T07:11:54.236Z,5.50
2022-08-16T07:14:24.256Z,5.75
2022-08-16T07:16:27.785Z,5.93
2022-08-16T07:18:29.275Z,5.25
2022-08-16T07:20:47.413Z,4.80
2022-08-16T07:22:52.510Z,4.55
2022-08-16T07:24:54.535Z,4.97
2022-08-16T07:26:55.975Z,4.78
2022-08-16T07:28:57.263Z,4.90
2022-08-16T07:30:59.933Z,4.50
2022-08-16T07:33:02.472Z,3.85
2022-08-16T07:35:04.205Z,3.97
2022-08-16T07:37:09.572Z,4.20
2022-08-16T07:39:11.717Z,4.30
2022-08-16T07:41:13.096Z,3.78
2022-08-16T07:43:17.150Z,4.07
2022-08-16T07:45:19.348Z,3.67
2022-08-16T07:47:24.375Z,4.15
2022-08-16T07:49:26.131Z,4.13
2022-08-16T07:51:37.046Z,4.50
2022-08-16T07:53:43.805Z,4.13
2022-08-16T07:55:47.631Z,4.05
2022-08-16T07:57:59.774Z,3.92
2022-08-16T08:00:02.848Z,4.10
2022-08-16T08:02:04.155Z,3.97
2022-08-16T08:04:14.004Z,3.83
2022-08-16T08:06:16.385Z,4.40
2022-08-16T08:08:50.934Z,3.95
2022-08-16T08:10:40.034Z,4.38
2022-08-16T08:12:43.905Z,5.38
2022-08-16T08:14:46.280Z,4.20
2022-08-16T08:16:47.624Z,3.80
2022-08-16T08:18:55.939Z,3.75
2022-08-16T08:21:02.315Z,3.83
2022-08-16T08:23:03.639Z,4.20
2022-08-16T08:25:05.617Z,3.88
2022-08-16T08:27:08.988Z,3.92
2022-08-16T08:29:10.322Z,3.65
2022-08-16T08:31:17.184Z,4.50
2022-08-16T08:33:18.647Z,3.75
2022-08-16T08:35:24.334Z,4.20
2022-08-16T08:37:28.401Z,3.78
2022-08-16T08:39:55.173Z,3.60
2022-08-16T08:41:56.886Z,4.20
2022-08-16T08:43:58.686Z,3.85
2022-08-16T08:46:00.065Z,4.20
2022-08-16T08:48:01.400Z,4.30
2022-08-16T08:50:06.859Z,4.20
2022-08-16T08:52:08.233Z,3.88
2022-08-16T08:54:10.707Z,4.05
2022-08-16T08:56:23.688Z,3.97
2022-08-16T08:58:34.323Z,3.65
2022-08-16T09:00:51.130Z,4.40
2022-08-16T09:02:52.845Z,4.15
2022-08-16T09:04:54.297Z,4.70
2022-08-16T09:06:58.719Z,4.18
2022-08-16T09:09:03.518Z,3.90
2022-08-16T09:11:04.907Z,4.10
2022-08-16T09:13:10.779Z,3.80
2022-08-16T09:15:13.860Z,4.30
2022-08-16T09:17:38.317Z,4.00
2022-08-16T09:19:40.946Z,5.80
2022-08-16T09:21:42.535Z,6.70
2022-08-16T09:23:44.312Z,4.10
2022-08-16T09:25:48.323Z,4.30
2022-08-16T09:27:57.975Z,4.03
2022-08-16T09:30:34.706Z,4.00
2022-08-16T09:32:30.743Z,4.10
2022-08-16T09:34:33.200Z,4.22
2022-08-16T09:36:34.501Z,4.25
2022-08-16T09:38:36.022Z,4.13
2022-08-16T09:40:42.973Z,4.50
2022-08-16T09:42:56.510Z,4.03
2022-08-16T09:45:11.372Z,4.45
2022-08-16T09:47:17.598Z,4.47
2022-08-16T09:49:26.143Z,4.00
2022-08-16T09:51:38.351Z,3.85
2022-08-16T09:53:39.847Z,4.63
2022-08-16T09:55:44.448Z,3.95
2022-08-16T09:57:52.980Z,3.88
2022-08-16T09:59:56.092Z,4.00
2022-08-16T10:01:58.258Z,4.25
2022-08-16T10:04:02.202Z,3.97
2022-08-16T10:06:04.674Z,4.25
2022-08-16T10:08:26.194Z,4.35
2022-08-16T10:10:30.729Z,4.18
2022-08-16T10:12:55.852Z,4.35
2022-08-16T10:14:58.206Z,4.05
2022-08-16T10:17:03.420Z,4.10
2022-08-16T10:19:06.975Z,3.63
2022-08-16T10:21:09.335Z,4.00
2022-08-16T10:23:17.098Z,4.03
2022-08-16T10:27:20.521Z,4.00
2022-08-16T10:27:46.857Z,4.50
2022-08-16T10:30:01.301Z,4.40
2022-08-16T10:32:08.400Z,3.97
2022-08-16T10:34:31.400Z,3.80
2022-08-16T10:36:38.550Z,4.18
2022-08-16T10:38:42.090Z,4.03
2022-08-16T10:40:45.460Z,4.00
2022-08-16T10:42:49.519Z,4.45
2022-08-16T10:44:54.730Z,4.15
2022-08-16T10:46:56.475Z,4.32
2022-08-16T10:48:58.091Z,4.30
2022-08-16T10:51:02.355Z,5.47
2022-08-16T10:53:07.457Z,4.95
2022-08-16T10:57:33.265Z,4.07
2022-08-16T10:59:45.834Z,4.60
2022-08-16T11:06:38.829Z,3.63
2022-08-16T11:08:44.925Z,3.80
2022-08-16T11:11:06.819Z,3.78
2022-08-16T11:15:31.357Z,3.70
2022-08-16T11:17:36.882Z,4.45
2022-08-16T11:20:40.820Z,3.90
2022-08-16T11:22:38.687Z,4.13
2022-08-16T11:24:42.489Z,4.57
2022-08-16T11:26:45.211Z,4.20
2022-08-16T11:29:15.067Z,4.20
2022-08-16T11:31:19.582Z,4.07
2022-08-16T11:33:52.187Z,4.18
2022-08-16T11:35:43.944Z,3.92
2022-08-16T11:40:10.259Z,4.10
2022-08-16T11:42:21.528Z,4.00
2022-08-16T11:44:52.722Z,5.00
2022-08-16T11:46:51.375Z,3.70
2022-08-16T11:48:55.547Z,4.35
2022-08-16T11:50:57.308Z,4.53
2022-08-16T11:52:59.663Z,4.30
2022-08-16T11:55:06.366Z,3.88
2022-08-16T11:57:09.740Z,4.30
2022-08-16T11:59:12.683Z,4.57
2022-08-16T12:01:15.267Z,4.18
2022-08-16T12:03:17.703Z,4.03
2022-08-16T12:05:19.248Z,4.32
2022-08-16T12:07:23.648Z,4.10
2022-08-16T12:09:29.590Z,4.15
2022-08-16T12:11:32.051Z,3.80
2022-08-16T12:13:34.688Z,3.88
2022-08-16T12:15:36.198Z,4.60
2022-08-16T12:17:39.806Z,3.92
2022-08-16T12:19:41.334Z,4.00
2022-08-16T12:21:58.932Z,4.10
2022-08-16T12:24:00.895Z,4.20
2022-08-16T12:26:07.944Z,3.65
2022-08-16T12:28:12.503Z,3.65
2022-08-16T12:30:26.385Z,4.18
2022-08-16T12:32:39.572Z,4.40
2022-08-16T12:34:50.696Z,3.80
2022-08-16T12:36:54.262Z,4.03
2022-08-16T12:38:55.627Z,4.03
2022-08-16T12:40:58.189Z,3.95
2022-08-16T12:43:01.016Z,4.18
2022-08-16T12:45:03.312Z,3.88
2022-08-16T12:47:23.125Z,3.83
2022-08-16T12:49:24.430Z,3.80
2022-08-16T12:51:59.315Z,3.88
2022-08-16T12:53:59.624Z,3.90
2022-08-16T12:56:01.697Z,4.25
2022-08-16T12:58:03.374Z,4.00
2022-08-16T13:00:26.949Z,3.80
2022-08-16T13:02:36.425Z,3.90
2022-08-16T13:04:38.135Z,3.95
2022-08-16T13:06:39.933Z,4.85
2022-08-16T13:08:42.399Z,3.90
2022-08-16T13:10:50.663Z,4.80
2022-08-16T13:12:54.258Z,3.78
2022-08-16T13:14:55.859Z,4.10
2022-08-16T13:16:57.146Z,4.22
2022-08-16T13:18:59.514Z,4.18
2022-08-16T13:21:00.904Z,3.78
2022-08-16T13:23:04.210Z,3.92
2022-08-16T13:25:08.960Z,4.10
2022-08-16T13:27:10.369Z,3.90
2022-08-16T13:29:11.778Z,4.22
2022-08-16T13:31:13.161Z,3.63
2022-08-16T13:33:24.824Z,4.25
2022-08-16T13:35:34.617Z,4.13
2022-08-16T13:37:36.461Z,4.10
2022-08-16T13:39:37.926Z,4.05
2022-08-16T13:41:41.768Z,3.90
2022-08-16T13:43:43.118Z,3.55
2022-08-16T13:45:44.733Z,3.60
2022-08-16T13:47:48.503Z,3.72
2022-08-16T13:49:54.306Z,4.35
2022-08-16T13:51:55.633Z,4.28
2022-08-16T13:54:03.260Z,4.40
2022-08-16T13:56:05.022Z,3.97
2022-08-16T13:58:37.335Z,3.72
2022-08-16T14:00:27.574Z,4.40
2022-08-16T14:02:28.998Z,4.00
2022-08-16T14:04:31.818Z,3.70
2022-08-16T14:06:33.294Z,4.07
2022-08-16T14:08:34.585Z,4.15
2022-08-16T14:10:35.951Z,4.20
2022-08-16T14:12:37.662Z,4.18
2022-08-16T14:14:39.203Z,3.70
2022-08-16T14:16:40.577Z,3.53
2022-08-16T14:18:43.284Z,3.50
2022-08-16T14:20:48.499Z,3.63
2022-08-16T14:22:52.540Z,3.90
2022-08-16T14:24:56.614Z,3.55
2022-08-16T14:26:57.897Z,4.00
2022-08-16T14:29:03.794Z,3.40
2022-08-16T14:31:06.387Z,3.78
2022-08-16T14:33:09.571Z,3.78
2022-08-16T14:35:12.834Z,3.60
2022-08-16T14:37:14.182Z,3.67
2022-08-16T14:39:15.727Z,3.90
2022-08-16T14:41:17.214Z,3.28
2022-08-16T14:43:19.066Z,4.00
2022-08-16T14:45:23.891Z,3.70
2022-08-16T14:47:25.240Z,3.70
2022-08-16T14:49:35.987Z,3.38
2022-08-16T14:51:45.901Z,3.60
2022-08-16T14:53:52.028Z,3.53
2022-08-16T14:55:54.591Z,3.60
2022-08-16T14:57:56.324Z,3.70
2022-08-16T15:00:01.980Z,3.35
2022-08-16T15:02:34.051Z,3.90
2022-08-16T15:04:40.317Z,3.50
2022-08-16T15:06:49.404Z,3.72
2022-08-16T15:08:50.731Z,4.05
2022-08-16T15:10:52.206Z,3.63
2022-08-16T15:12:56.397Z,3.90
2022-08-16T15:14:59.705Z,3.78
2022-08-16T15:17:02.076Z,3.75
2022-08-16T15:19:04.597Z,3.58
2022-08-16T15:21:06.043Z,3.60
2022-08-16T15:23:10.575Z,3.42
2022-08-16T15:25:17.663Z,3.47
2022-08-16T15:27:18.956Z,3.40
2022-08-16T15:29:20.243Z,3.40
2022-08-16T15:31:25.322Z,3.80
2022-08-16T15:33:27.196Z,3.78
2022-08-16T15:35:29.791Z,3.80
2022-08-16T15:37:42.661Z,3.30
2022-08-16T15:39:48.562Z,3.83
2022-08-16T15:41:58.324Z,3.60
2022-08-16T15:44:05.254Z,3.55
2022-08-16T15:46:34.614Z,3.70
2022-08-16T15:48:40.159Z,3.60
2022-08-16T15:50:42.224Z,3.17
2022-08-16T15:52:43.671Z,3.50
2022-08-16T15:54:53.206Z,3.67
2022-08-16T15:56:55.471Z,3.90
2022-08-16T15:58:57.525Z,3.33
2022-08-16T16:00:59.095Z,3.85
2022-08-16T16:03:01.395Z,3.67
2022-08-16T16:05:07.314Z,3.60
2022-08-16T16:07:11.280Z,3.63
2022-08-16T16:09:16.330Z,3.58
2022-08-16T16:11:18.142Z,3.80
2022-08-16T16:13:20.069Z,3.40
2022-08-16T16:15:23.348Z,3.53
2022-08-16T16:17:25.783Z,4.38
2022-08-16T16:19:30.868Z,3.80
2022-08-16T16:21:32.620Z,3.60
2022-08-16T16:23:36.319Z,3.35
2022-08-16T16:25:46.318Z,3.50
2022-08-16T16:27:55.331Z,3.50
2022-08-16T16:30:01.887Z,3.33
2022-08-16T16:32:05.822Z,3.50
2022-08-16T16:34:09.961Z,3.67
2022-08-16T16:36:13.470Z,3.20
2022-08-16T16:38:16.117Z,3.42
2022-08-16T16:40:23.822Z,3.72
2022-08-16T16:42:36.024Z,3.22
2022-08-16T16:44:50.869Z,3.80
2022-08-16T16:46:56.741Z,3.20
2022-08-16T16:49:03.095Z,3.33
2022-08-16T16:51:09.733Z,4.07
2022-08-16T16:53:17.186Z,4.18
2022-08-16T16:55:19.443Z,4.70
2022-08-16T16:57:42.415Z,3.97
2022-08-16T16:59:46.239Z,3.50
2022-08-16T17:01:57.662Z,3.30
2022-08-16T17:04:13.137Z,3.20
2022-08-16T17:06:20.496Z,3.45
2022-08-16T17:08:24.722Z,3.30
2022-08-16T17:10:46.858Z,3.30
2022-08-16T17:12:50.048Z,3.25
2022-08-16T17:14:57.945Z,3.35
2022-08-16T17:17:01.717Z,3.65
2022-08-16T17:19:16.710Z,3.05
2022-08-16T17:21:23.406Z,3.00
2022-08-16T17:23:58.180Z,3.28
2022-08-16T17:25:46.485Z,3.45
2022-08-16T17:27:53.897Z,3.40
2022-08-16T17:29:58.134Z,3.58
2022-08-16T17:32:32.541Z,3.60
2022-08-16T17:34:31.052Z,4.75
2022-08-16T17:36:52.175Z,4.05
2022-08-16T17:38:55.901Z,3.70
2022-08-16T17:40:59.261Z,4.40
2022-08-16T17:43:01.364Z,4.45
2022-08-16T17:45:02.796Z,3.67
2022-08-16T17:47:04.238Z,4.00
2022-08-16T17:49:05.554Z,3.50
2022-08-16T17:51:06.937Z,3.88
2022-08-16T17:53:08.777Z,3.47
2022-08-16T17:55:14.345Z,3.45
2022-08-16T17:57:17.007Z,3.33
2022-08-16T17:59:18.537Z,3.22
2022-08-16T18:01:21.660Z,4.13
2022-08-16T18:04:07.860Z,3.65
2022-08-16T18:05:50.526Z,3.30
2022-08-16T18:07:51.997Z,3.30
2022-08-16T18:09:55.647Z,3.35
2022-08-16T18:11:56.920Z,3.90
2022-08-16T18:13:58.328Z,3.90
2022-08-16T18:15:59.832Z,3.92
2022-08-16T18:18:01.238Z,4.50
2022-08-16T18:20:03.424Z,4.30
2022-08-16T18:22:20.037Z,4.15
2022-08-16T18:24:21.377Z,3.80
2022-08-16T18:26:22.790Z,4.10
2022-08-16T18:28:25.257Z,3.88
2022-08-16T18:30:26.643Z,4.03
2022-08-16T18:32:28.344Z,4.15
2022-08-16T18:34:29.648Z,4.20
2022-08-16T18:36:31.086Z,4.57
2022-08-16T18:38:32.643Z,4.28
2022-08-16T18:40:33.987Z,4.22
2022-08-16T18:42:35.309Z,4.55
2022-08-16T18:44:38.347Z,4.60
2022-08-16T18:46:43.704Z,4.85
2022-08-16T18:48:45.077Z,4.80
2022-08-16T18:50:59.129Z,4.72
2022-08-16T18:53:07.917Z,4.70
2022-08-16T18:55:14.395Z,5.00
2022-08-16T18:57:16.285Z,4.70
2022-08-16T18:59:17.978Z,4.60
2022-08-16T19:01:20.620Z,4.70
2022-08-16T19:03:23.610Z,4.10
2022-08-16T19:05:27.049Z,4.55
2022-08-16T19:07:30.517Z,4.43
2022-08-16T19:09:33.115Z,4.30
2022-08-16T19:11:34.907Z,4.20
2022-08-16T19:13:36.239Z,4.78
2022-08-16T19:15:38.091Z,4.85
2022-08-16T19:17:39.566Z,4.65
2022-08-16T19:19:40.870Z,4.00
2022-08-16T19:21:42.394Z,4.25
2022-08-16T19:23:43.930Z,4.45
2022-08-16T19:25:49.668Z,4.25
2022-08-16T19:27:54.559Z,4.28
2022-08-16T19:29:57.519Z,3.97
2022-08-16T19:31:58.885Z,4.20
2022-08-16T19:34:01.055Z,4.38
2022-08-16T19:36:02.514Z,4.72
2022-08-16T19:38:04.552Z,4.18
2022-08-16T19:40:25.571Z,4.35
2022-08-16T19:42:29.936Z,4.00
2022-08-16T19:44:31.256Z,4.55
2022-08-16T19:46:33.038Z,4.40
2022-08-16T19:48:34.364Z,4.30
2022-08-16T19:50:36.407Z,4.13
2022-08-16T19:52:38.546Z,4.40
2022-08-16T19:54:40.390Z,4.43
2022-08-16T19:56:42.668Z,4.47
2022-08-16T19:59:08.692Z,4.60
2022-08-16T20:01:07.307Z,9.50
2022-08-16T20:03:16.038Z,8.50
2022-08-16T20:05:22.522Z,5.18
2022-08-16T20:07:24.121Z,4.72
2022-08-16T20:09:25.694Z,5.25
2022-08-16T20:11:27.201Z,6.20
2022-08-16T20:13:28.539Z,5.32
2022-08-16T20:15:30.828Z,5.25
2022-08-16T20:17:32.169Z,6.00
2022-08-16T20:19:36.375Z,5.10
2022-08-16T20:21:41.770Z,4.35
2022-08-16T20:23:43.050Z,4.88
2022-08-16T20:25:47.518Z,4.53
2022-08-16T20:27:51.705Z,4.60
2022-08-16T20:29:53.070Z,4.68
2022-08-16T20:31:54.735Z,4.50
2022-08-16T20:33:56.034Z,4.50
2022-08-16T20:35:57.339Z,4.22
2022-08-16T20:37:59.930Z,4.63
2022-08-16T20:40:18.177Z,4.53
2022-08-16T20:42:27.186Z,4.30
2022-08-16T20:44:28.480Z,4.43
2022-08-16T20:46:29.823Z,4.28
2022-08-16T20:48:31.183Z,4.38
2022-08-16T20:50:32.796Z,5.75
2022-08-16T20:52:34.104Z,4.97
2022-08-16T20:54:35.870Z,4.43
2022-08-16T20:56:37.211Z,4.40
2022-08-16T20:58:38.703Z,4.07
2022-08-16T21:00:40.278Z,4.40
2022-08-16T21:02:43.015Z,4.25
2022-08-16T21:04:44.403Z,4.40
2022-08-16T21:06:52.987Z,4.70
2022-08-16T21:08:55.950Z,4.70
2022-08-16T21:10:57.697Z,4.32
2022-08-16T21:13:02.621Z,4.47
2022-08-16T21:15:07.236Z,4.25
2022-08-16T21:17:09.251Z,4.70
2022-08-16T21:19:10.547Z,5.20
2022-08-16T21:21:12.547Z,4.75
2022-08-16T21:23:13.861Z,10.07
2022-08-16T21:25:15.284Z,4.80
2022-08-16T21:27:20.674Z,4.38
2022-08-16T21:29:34.681Z,4.35
2022-08-16T21:31:44.523Z,4.13
2022-08-16T21:33:47.455Z,4.15
2022-08-16T21:35:56.504Z,4.10
2022-08-16T21:38:01.020Z,4.07
2022-08-16T21:40:19.235Z,4.60
2022-08-16T21:42:21.354Z,4.88
2022-08-16T21:44:22.759Z,4.47
2022-08-16T21:46:34.033Z,4.20
2022-08-16T21:48:36.318Z,4.60
2022-08-16T21:50:43.061Z,4.63
2022-08-16T21:52:44.388Z,4.20
2022-08-16T21:54:45.886Z,4.10
2022-08-16T21:56:47.244Z,4.30
2022-08-16T21:58:53.048Z,4.30
2022-08-16T22:00:55.183Z,4.45
2022-08-16T22:02:57.685Z,4.13
2022-08-16T22:05:00.282Z,4.63
2022-08-16T22:07:01.631Z,4.03
2022-08-16T22:09:03.589Z,4.18
2022-08-16T22:11:09.286Z,4.05
2022-08-16T22:13:21.640Z,4.10
2022-08-16T22:15:26.186Z,4.03
2022-08-16T22:17:27.513Z,4.30
2022-08-16T22:19:29.240Z,4.63
2022-08-16T22:21:31.407Z,3.97
2022-08-16T22:23:34.371Z,4.20
2022-08-16T22:25:36.262Z,4.45
2022-08-16T22:27:37.556Z,4.20
2022-08-16T22:29:39.449Z,4.13
2022-08-16T22:31:44.200Z,4.30
2022-08-16T22:33:45.482Z,4.75
2022-08-16T22:35:48.635Z,4.55
2022-08-16T22:38:50.424Z,4.38
2022-08-16T22:40:12.313Z,4.40
2022-08-16T22:42:13.746Z,4.47
2022-08-16T22:44:16.534Z,4.30
2022-08-16T22:46:19.303Z,4.32
2022-08-16T22:48:21.967Z,4.20
2022-08-16T22:50:23.798Z,4.60
2022-08-16T22:52:55.740Z,4.07
2022-08-16T22:54:48.659Z,4.38
2022-08-16T22:56:50.555Z,4.40
2022-08-16T22:58:51.886Z,4.30
2022-08-16T23:00:53.184Z,4.60
2022-08-16T23:03:02.841Z,5.00
2022-08-16T23:05:04.435Z,4.32
2022-08-16T23:07:06.510Z,4.57
2022-08-16T23:09:07.872Z,4.53
2022-08-16T23:11:11.976Z,4.78
2022-08-16T23:13:13.962Z,4.50
2022-08-16T23:15:16.954Z,4.40
2022-08-16T23:17:18.403Z,4.90
2022-08-16T23:19:19.759Z,4.75
2022-08-16T23:21:21.149Z,4.47
2022-08-16T23:23:25.387Z,4.80
2022-08-16T23:25:30.270Z,4.70
2022-08-16T23:27:31.662Z,4.95
2022-08-16T23:29:33.098Z,4.75
2022-08-16T23:31:34.489Z,4.68
2022-08-16T23:33:37.042Z,5.22
2022-08-16T23:35:45.636Z,5.55
2022-08-16T23:37:47.289Z,5.38
2022-08-16T23:39:48.639Z,5.50
2022-08-16T23:41:55.972Z,5.65
2022-08-16T23:43:57.262Z,5.40
2022-08-16T23:46:02.827Z,4.90
2022-08-16T23:48:05.048Z,5.72
2022-08-16T23:50:06.415Z,5.32
2022-08-16T23:52:08.224Z,5.22
2022-08-16T23:54:11.407Z,5.32
2022-08-16T23:56:17.368Z,5.25
2022-08-16T23:58:23.809Z,5.20
